Time;durP1;ratioP1;P1;durP2;ratioP2;P2;SDS_P1;SDS_P2;PMS_P1;PMS_P2;Temp;Humidity;BMP_temperature;BMP_pressure;BME280_temperature;BME280_humidity;BME280_pressure;Samples;Min_cycle;Max_cycle;Signal;HPM_P1;HPM_P2
2023/03/25 00:02:04;;;;;;;;;;;;;;;14.13;59.39;98582.72;107669;1254;73878;-40
2023/03/25 00:04:37;;;;;;;16.90;12.40;;;;;;;14.08;59.36;98580.10;107665;1256;61225;-40
2023/03/25 00:07:06;;;;;;;19.30;13.70;;;;;;;14.05;59.43;98579.20;107522;1254;60073;-40
2023/03/25 00:09:35;;;;;;;22.00;14.20;;;;;;;14.07;59.38;98577.23;107528;1254;75044;-40
2023/03/25 00:12:04;;;;;;;20.00;13.80;;;;;;;14.08;59.28;98570.21;107533;1254;69960;-39
2023/03/25 00:14:33;;;;;;;20.40;13.30;;;;;;;14.10;59.19;98569.50;107538;1257;73865;-39
2023/03/25 00:17:05;;;;;;;17.70;13.10;;;;;;;14.10;59.09;98569.48;107527;1254;61387;-40
2023/03/25 00:19:34;;;;;;;18.20;13.00;;;;;;;14.10;58.91;98569.81;107598;1254;61624;-38
2023/03/25 00:22:02;;;;;;;18.10;12.90;;;;;;;14.09;58.95;98564.52;107634;1254;74080;-38
2023/03/25 00:24:32;;;;;;;16.00;12.60;;;;;;;14.10;58.89;98560.94;107642;1257;68940;-39
2023/03/25 00:27:00;;;;;;;20.10;13.40;;;;;;;14.10;58.86;98557.50;107593;1253;73855;-39
2023/03/25 00:29:34;;;;;;;18.90;12.20;;;;;;;14.11;58.69;98555.16;107578;1254;61738;-39
2023/03/25 00:32:04;;;;;;;19.50;12.30;;;;;;;14.12;58.53;98554.84;107663;1254;61278;-39
2023/03/25 00:34:34;;;;;;;17.20;12.50;;;;;;;14.12;58.34;98549.78;107659;1256;74165;-39
2023/03/25 00:37:04;;;;;;;24.70;13.30;;;;;;;14.12;58.23;98550.95;107683;1256;69655;-39
2023/03/25 00:39:34;;;;;;;18.00;12.20;;;;;;;14.13;58.17;98546.50;107630;1254;73657;-39
2023/03/25 00:42:09;;;;;;;23.20;12.70;;;;;;;14.13;57.87;98549.77;107632;1254;61278;-39
2023/03/25 00:44:39;;;;;;;19.00;12.20;;;;;;;14.13;57.70;98543.23;107683;1254;60349;-39
2023/03/25 00:47:10;;;;;;;20.60;12.20;;;;;;;14.15;57.47;98544.85;107688;1252;73394;-39
2023/03/25 00:49:39;;;;;;;14.30;11.30;;;;;;;14.15;57.21;98544.77;107517;1254;69734;-39
2023/03/25 00:52:07;;;;;;;16.40;11.70;;;;;;;14.16;57.07;98541.27;107617;1254;73864;-39
2023/03/25 00:54:36;;;;;;;21.90;12.20;;;;;;;14.17;56.79;98544.73;107675;1254;61604;-39
2023/03/25 00:57:05;;;;;;;16.00;10.70;;;;;;;14.19;56.64;98542.71;107691;1252;61553;-38
2023/03/25 00:59:35;;;;;;;15.10;10.80;;;;;;;14.20;56.62;98548.38;107664;1254;75012;-40
2023/03/25 01:02:03;;;;;;;15.70;11.50;;;;;;;14.21;56.84;98548.92;107679;1256;70266;-40
2023/03/25 01:04:36;;;;;;;15.50;10.50;;;;;;;14.22;56.67;98551.33;107639;1256;72546;-40
2023/03/25 01:07:08;;;;;;;17.20;11.30;;;;;;;14.23;56.55;98550.23;107636;1254;61554;-40
2023/03/25 01:09:38;;;;;;;16.50;11.50;;;;;;;14.22;56.53;98550.56;107632;1255;60322;-40
2023/03/25 01:12:07;;;;;;;15.60;11.40;;;;;;;14.21;56.41;98547.14;107531;1253;74998;-40
2023/03/25 01:14:35;;;;;;;17.80;10.80;;;;;;;14.21;56.19;98542.30;107549;1256;69699;-40
2023/03/25 01:17:04;;;;;;;18.70;11.90;;;;;;;14.23;56.09;98541.19;107552;1254;73925;-40
2023/03/25 01:19:33;;;;;;;16.40;11.50;;;;;;;14.24;55.82;98542.98;107674;1256;61268;-39
2023/03/25 01:22:02;;;;;;;16.70;11.80;;;;;;;14.23;55.77;98537.61;107429;1254;61635;-40
2023/03/25 01:24:31;;;;;;;16.70;11.70;;;;;;;14.21;55.70;98540.27;107540;1254;75150;-40
2023/03/25 01:27:00;;;;;;;16.70;12.40;;;;;;;14.19;55.43;98536.23;107505;1254;69918;-40
2023/03/25 01:29:29;;;;;;;16.50;12.50;;;;;;;14.15;55.28;98537.83;107609;1254;73287;-40
2023/03/25 01:31:58;;;;;;;18.40;13.00;;;;;;;14.12;54.93;98535.77;107536;1254;61267;-40
2023/03/25 01:34:26;;;;;;;19.90;12.60;;;;;;;14.09;54.73;98530.80;107653;1254;61629;-40
2023/03/25 01:36:55;;;;;;;18.40;12.50;;;;;;;14.08;54.71;98537.66;107655;1255;75082;-40
2023/03/25 01:39:24;;;;;;;21.80;12.60;;;;;;;14.07;54.57;98537.29;107656;1254;69775;-40
2023/03/25 01:41:54;;;;;;;19.70;12.90;;;;;;;14.04;54.84;98537.86;107666;1252;73939;-40
2023/03/25 01:44:23;;;;;;;18.40;12.00;;;;;;;14.05;55.08;98539.55;107691;1254;61317;-40
2023/03/25 01:46:52;;;;;;;15.20;12.20;;;;;;;14.03;55.03;98542.70;107589;1254;61203;-39
2023/03/25 01:49:28;;;;;;;16.70;12.70;;;;;;;14.00;55.14;98545.13;107624;1257;74941;-40
2023/03/25 01:52:03;;;;;;;17.70;13.20;;;;;;;13.96;55.31;98541.80;107705;1253;69801;-39
2023/03/25 01:54:34;;;;;;;21.40;13.00;;;;;;;13.94;55.12;98542.69;107519;1254;74013;-38
2023/03/25 01:57:04;;;;;;;18.80;12.80;;;;;;;13.91;55.14;98542.70;107519;1254;60543;-38
2023/03/25 01:59:32;;;;;;;16.00;11.70;;;;;;;13.89;55.03;98536.64;107698;1253;60348;-38
2023/03/25 02:02:02;;;;;;;19.20;12.80;;;;;;;13.87;55.03;98536.43;107689;1254;73914;-38
2023/03/25 02:04:37;;;;;;;19.40;12.10;;;;;;;13.84;55.02;98544.32;107553;1255;70090;-39
2023/03/25 02:07:07;;;;;;;19.10;12.70;;;;;;;13.81;55.03;98542.85;107658;1256;73895;-39
2023/03/25 02:09:38;;;;;;;17.40;12.50;;;;;;;13.79;55.12;98537.12;107592;1257;60318;-39
2023/03/25 02:12:07;;;;;;;17.30;11.50;;;;;;;13.78;55.20;98529.48;107723;1252;61222;-40
2023/03/25 02:14:38;;;;;;;18.10;12.30;;;;;;;13.78;55.09;98523.90;107546;1254;75151;-40
2023/03/25 02:17:14;;;;;;;16.20;12.60;;;;;;;13.77;54.97;98513.39;107434;1252;69560;-39
2023/03/25 02:20:12;;;;;;;19.90;12.40;;;;;;;13.74;54.80;98514.73;106826;1255;1002943;-39
2023/03/25 02:23:09;;;;;;;16.80;11.80;;;;;;;13.73;54.49;98519.41;107400;1254;62054;-39
2023/03/25 02:25:55;;;;;;;17.00;12.20;;;;;;;13.70;54.45;98524.10;107651;1253;60673;-39
2023/03/25 02:28:46;;;;;;;19.20;12.10;;;;;;;13.65;54.42;98523.90;107487;1253;74772;-39
2023/03/25 02:31:36;;;;;;;18.50;11.80;;;;;;;13.60;54.39;98517.01;107685;1255;69909;-39
2023/03/25 02:34:41;;;;;;;16.00;12.50;;;;;;;13.56;54.29;98516.73;107716;1254;73874;-39
2023/03/25 02:37:16;;;;;;;16.50;12.30;;;;;;;13.52;54.47;98516.98;107602;1254;61788;-40
2023/03/25 02:39:51;;;;;;;15.20;11.90;;;;;;;13.51;54.67;98513.88;107543;1254;61287;-40
2023/03/25 02:42:36;;;;;;;15.60;11.70;;;;;;;13.51;54.92;98510.70;107532;1259;73139;-40
2023/03/25 02:45:12;;;;;;;17.50;12.80;;;;;;;13.51;55.34;98510.77;107724;1254;68781;-40
2023/03/25 02:47:45;;;;;;;17.20;12.50;;;;;;;13.46;55.69;98512.73;107601;1253;73623;-40
2023/03/25 02:50:21;;;;;;;17.50;12.80;;;;;;;13.42;55.91;98511.36;107407;1254;61340;-40
2023/03/25 02:52:51;;;;;;;22.30;12.80;;;;;;;13.36;56.40;98503.86;107554;1254;60410;-40
2023/03/25 02:55:21;;;;;;;19.50;13.10;;;;;;;13.30;56.97;98508.64;107516;1252;74844;-40
2023/03/25 02:57:51;;;;;;;18.00;13.10;;;;;;;13.23;57.62;98500.91;107578;1254;68938;-39
2023/03/25 03:00:27;;;;;;;17.10;12.30;;;;;;;13.13;58.09;98493.80;107492;1254;73644;-40
2023/03/25 03:02:58;;;;;;;16.50;12.60;;;;;;;13.06;58.46;98483.79;107707;1252;60450;-40
2023/03/25 03:05:33;;;;;;;18.50;12.90;;;;;;;13.01;58.89;98480.86;107744;1254;61951;-40
2023/03/25 03:08:13;;;;;;;19.20;12.40;;;;;;;12.98;59.01;98477.14;107673;1254;75065;-39
2023/03/25 03:10:43;;;;;;;;;;;;;;;12.94;58.73;98477.23;107708;1254;69662;-40
2023/03/25 03:13:48;;;;;;;18.60;12.70;;;;;;;12.86;58.94;98471.28;107752;1254;74191;-39
2023/03/25 03:16:47;;;;;;;16.90;12.30;;;;;;;12.80;58.62;98471.70;107416;1254;61575;-39
2023/03/25 03:19:33;;;;;;;15.70;12.40;;;;;;;12.80;58.37;98469.14;107692;1252;61446;-40
2023/03/25 03:22:42;;;;;;;17.20;12.30;;;;;;;12.81;57.98;98475.35;107602;1254;75129;-40
2023/03/25 03:25:21;;;;;;;18.40;12.90;;;;;;;12.82;57.20;98486.39;107562;1253;69921;-40
2023/03/25 03:28:15;;;;;;;18.20;12.40;;;;;;;12.82;57.11;98490.43;107538;1255;74173;-40
2023/03/25 03:30:57;;;;;;;17.70;13.00;;;;;;;12.83;57.09;98478.45;107512;1254;61400;-40
2023/03/25 03:33:31;;;;;;;17.70;13.00;;;;;;;12.83;57.14;98490.11;107597;1254;60431;-40
2023/03/25 03:36:03;;;;;;;19.40;12.70;;;;;;;12.84;56.99;98495.00;107568;1253;74735;-40
2023/03/25 03:38:35;;;;;;;19.50;12.80;;;;;;;12.83;57.05;98494.54;107739;1253;70039;-40
2023/03/25 03:44:13;;;;;;;18.60;13.10;;;;;;;12.84;56.77;98498.19;104124;1292;600387;-39
2023/03/25 03:46:47;;;;;;;17.70;12.60;;;;;;;12.84;56.95;98496.71;106618;1267;60067;-39
2023/03/25 03:49:20;;;;;;;15.30;12.60;;;;;;;12.82;57.07;98495.16;106612;1266;60329;-39
2023/03/25 03:51:57;;;;;;;19.70;14.00;;;;;;;12.80;57.49;98500.92;106628;1266;71923;-39
2023/03/25 03:54:28;;;;;;;19.10;13.20;;;;;;;12.78;57.78;98501.56;106720;1266;69705;-39
2023/03/25 03:57:01;;;;;;;17.50;13.10;;;;;;;12.74;57.89;98499.94;106592;1264;197154;-39
2023/03/25 04:00:12;;;;;;;18.50;12.10;;;;;;;12.73;58.25;98503.13;106859;1264;60529;-39
2023/03/25 04:02:52;;;;;;;19.60;12.40;;;;;;;12.69;58.34;98501.27;106859;1269;61222;-39
2023/03/25 04:05:21;;;;;;;19.50;13.30;;;;;;;12.61;58.62;98503.24;107194;1257;73426;-39
2023/03/25 04:08:16;;;;;;;19.30;13.00;;;;;;;12.57;59.24;98495.02;107023;1258;69966;-39
2023/03/25 04:10:51;;;;;;;24.50;13.30;;;;;;;12.53;59.61;98486.80;107191;1257;73806;-39
2023/03/25 04:13:20;;;;;;;20.80;13.30;;;;;;;12.51;60.01;98492.63;107268;1262;61309;-39
2023/03/25 04:15:50;;;;;;;18.90;12.80;;;;;;;12.48;60.05;98489.69;107232;1257;61368;-39
2023/03/25 04:18:22;;;;;;;20.80;13.00;;;;;;;12.47;59.68;98479.44;107253;1257;74348;-39
2023/03/25 04:20:50;;;;;;;18.10;13.00;;;;;;;12.48;59.41;98471.06;107195;1257;68942;-39
2023/03/25 04:23:20;;;;;;;18.20;13.30;;;;;;;12.46;59.33;98465.61;107065;1257;73936;-39
2023/03/25 04:25:51;;;;;;;16.80;12.50;;;;;;;12.46;59.25;98472.52;107095;1257;61619;-39
2023/03/25 04:28:26;;;;;;;18.90;12.90;;;;;;;12.46;58.62;98465.53;107238;1257;61521;-39
2023/03/25 04:30:56;;;;;;;16.60;12.60;;;;;;;12.45;58.40;98453.35;107219;1257;73944;-39
2023/03/25 04:33:25;;;;;;;;;;;;;;;12.49;58.18;98448.60;107228;1257;70079;-40
2023/03/25 04:35:53;;;;;;;22.40;13.20;;;;;;;12.47;58.10;98449.77;107101;1258;73680;-40
2023/03/25 04:38:22;;;;;;;16.80;13.00;;;;;;;12.46;57.96;98451.64;107083;1257;61416;-39
2023/03/25 04:40:51;;;;;;;18.10;12.60;;;;;;;12.51;57.83;98448.05;107192;1257;61434;-39
2023/03/25 04:43:19;;;;;;;16.20;12.10;;;;;;;12.53;57.67;98451.77;107208;1258;73969;-39
2023/03/25 04:45:52;;;;;;;17.40;13.40;;;;;;;12.55;57.53;98448.73;107222;1257;69921;-39
2023/03/25 04:48:24;;;;;;;16.60;12.70;;;;;;;12.59;57.75;98450.34;107232;1257;72444;-39
2023/03/25 04:50:54;;;;;;;18.00;13.30;;;;;;;12.57;57.59;98438.55;107238;1257;61879;-39
2023/03/25 04:53:24;;;;;;;19.90;13.50;;;;;;;12.62;57.53;98443.80;107262;1262;61513;-39
2023/03/25 04:55:54;;;;;;;17.90;13.10;;;;;;;12.63;57.51;98445.52;107276;1257;72905;-40
2023/03/25 04:58:22;;;;;;;19.60;13.70;;;;;;;12.64;57.51;98442.55;107254;1263;69758;-40
2023/03/25 05:00:51;;;;;;;18.50;13.60;;;;;;;12.66;57.61;98440.53;107214;1258;73844;-39
2023/03/25 05:03:23;;;;;;;20.10;14.00;;;;;;;12.68;57.53;98439.19;107226;1257;61291;-39
2023/03/25 05:05:52;;;;;;;21.40;13.80;;;;;;;12.70;57.35;98441.13;107235;1258;60006;-39
2023/03/25 05:08:22;;;;;;;21.00;14.10;;;;;;;12.69;57.46;98446.27;107219;1263;74862;-39
2023/03/25 05:10:51;;;;;;;19.90;14.10;;;;;;;12.69;57.64;98444.56;107260;1262;68806;-39
2023/03/25 05:13:23;;;;;;;28.40;15.50;;;;;;;12.69;57.81;98443.70;107202;1263;73886;-39
2023/03/25 05:15:52;;;;;;;21.30;15.20;;;;;;;12.69;57.81;98439.50;107214;1257;60602;-40
2023/03/25 05:18:21;;;;;;;20.20;14.20;;;;;;;12.69;57.81;98432.89;107227;1262;60024;-39
2023/03/25 05:20:59;;;;;;;24.90;16.10;;;;;;;12.69;57.70;98433.44;107187;1257;74259;-39
2023/03/25 05:23:30;;;;;;;20.70;16.20;;;;;;;12.69;57.68;98438.73;107196;1257;69724;-39
2023/03/25 05:25:58;;;;;;;24.30;16.20;;;;;;;12.71;57.55;98444.31;107193;1263;73927;-39
2023/03/25 05:28:30;;;;;;;25.10;16.60;;;;;;;12.71;57.72;98443.07;107046;1257;61034;-39
2023/03/25 05:30:58;;;;;;;22.00;16.40;;;;;;;12.72;57.63;98433.36;107101;1257;61377;-39
2023/03/25 05:33:28;;;;;;;23.90;17.20;;;;;;;12.74;57.82;98432.49;107105;1257;74455;-39
2023/03/25 05:35:56;;;;;;;24.00;16.20;;;;;;;12.79;57.77;98426.25;107176;1263;69961;-39
2023/03/25 05:38:25;;;;;;;24.30;16.60;;;;;;;12.83;57.53;98421.79;107123;1259;72887;-39
2023/03/25 05:40:53;;;;;;;24.10;16.50;;;;;;;12.88;57.44;98421.08;107063;1263;61387;-39
2023/03/25 05:43:23;;;;;;;24.80;16.20;;;;;;;12.93;57.30;98426.95;107071;1263;61084;-39
2023/03/25 05:45:51;;;;;;;21.80;15.70;;;;;;;12.97;56.87;98427.70;107053;1260;74200;-39
2023/03/25 05:48:21;;;;;;;22.90;16.70;;;;;;;12.99;56.57;98418.67;107080;1263;69655;-39
2023/03/25 05:50:50;;;;;;;20.40;15.70;;;;;;;13.01;56.37;98410.96;107026;1263;72306;-39
2023/03/25 05:53:19;;;;;;;21.80;15.90;;;;;;;13.06;56.33;98412.33;107029;1263;60056;-39
2023/03/25 05:55:50;;;;;;;21.60;15.80;;;;;;;13.12;56.17;98408.90;107057;1259;61514;-39
2023/03/25 05:58:24;;;;;;;23.30;16.60;;;;;;;13.17;56.02;98409.96;107057;1261;74230;-39
2023/03/25 06:00:53;;;;;;;23.50;16.20;;;;;;;13.18;55.84;98394.16;107011;1263;69935;-39
2023/03/25 06:03:24;;;;;;;25.70;16.50;;;;;;;13.27;55.54;98398.92;107081;1263;73862;-39
2023/03/25 06:05:55;;;;;;;20.80;15.90;;;;;;;13.32;55.47;98398.11;107370;1258;61341;-39
2023/03/25 06:08:24;;;;;;;22.80;16.30;;;;;;;13.36;55.43;98396.67;107439;1258;60338;-39
2023/03/25 06:10:59;;;;;;;23.60;16.10;;;;;;;13.40;55.57;98398.20;107394;1258;74217;-38
2023/03/25 06:13:28;;;;;;;23.30;15.60;;;;;;;13.42;55.56;98398.96;107399;1254;69992;-39
2023/03/25 06:15:58;;;;;;;19.60;16.30;;;;;;;13.45;55.43;98407.34;107444;1259;73857;-39
2023/03/25 06:18:33;;;;;;;22.00;16.20;;;;;;;13.47;55.09;98405.46;107417;1259;60055;-39
2023/03/25 06:21:03;;;;;;;22.10;16.00;;;;;;;13.47;55.08;98404.98;107392;1254;61484;-39
2023/03/25 06:23:34;;;;;;;21.90;16.70;;;;;;;13.48;55.27;98402.49;107385;1258;74447;-39
2023/03/25 06:26:03;;;;;;;19.50;15.90;;;;;;;13.50;55.42;98408.16;107368;1254;69983;-39
2023/03/25 06:28:33;;;;;;;23.20;16.80;;;;;;;13.52;55.44;98408.92;107252;1259;73563;-39
2023/03/25 06:31:26;;;;;;;21.70;16.30;;;;;;;13.54;55.52;98411.94;107269;1260;61604;-38
2023/03/25 06:33:55;;;;;;;23.80;16.20;;;;;;;13.56;55.42;98414.72;107296;1254;61553;-38
2023/03/25 06:36:26;;;;;;;23.90;17.20;;;;;;;13.57;55.73;98413.09;107334;1254;73929;-39
2023/03/25 06:38:57;;;;;;;25.40;17.70;;;;;;;13.60;55.91;98412.83;107348;1256;69909;-39
2023/03/25 06:41:34;;;;;;;23.40;16.70;;;;;;;13.62;55.94;98412.11;107339;1259;73867;-39
2023/03/25 06:44:15;;;;;;;21.80;16.40;;;;;;;13.64;56.13;98409.91;107348;1254;61367;-39
2023/03/25 06:47:10;;;;;;;23.20;16.80;;;;;;;13.68;55.90;98402.02;107394;1254;60226;-39
2023/03/25 06:49:49;;;;;;;23.30;16.60;;;;;;;13.71;55.76;98404.41;107373;1256;73123;-38
2023/03/25 06:52:18;;;;;;;21.80;15.80;;;;;;;13.73;55.68;98403.91;107431;1258;68989;-40
2023/03/25 06:54:50;;;;;;;20.60;16.40;;;;;;;13.76;55.85;98403.41;107391;1254;73533;-40
2023/03/25 06:57:18;;;;;;;22.20;16.70;;;;;;;13.79;55.88;98402.84;107411;1260;61563;-40
2023/03/25 06:59:48;;;;;;;20.60;15.90;;;;;;;13.81;55.96;98399.16;107407;1256;60505;-40
2023/03/25 07:02:16;;;;;;;24.20;16.80;;;;;;;13.81;55.28;98398.23;107436;1257;74127;-40
2023/03/25 07:04:45;;;;;;;21.80;16.30;;;;;;;13.79;55.39;98394.36;107389;1258;69864;-40
2023/03/25 07:07:14;;;;;;;23.80;16.40;;;;;;;13.78;55.78;98393.84;107446;1259;73843;-40
2023/03/25 07:09:45;;;;;;;21.10;15.80;;;;;;;13.77;55.62;98396.71;107374;1254;61457;-39
2023/03/25 07:12:13;;;;;;;21.10;15.60;;;;;;;13.76;55.69;98394.70;107471;1256;59577;-38
2023/03/25 07:14:56;;;;;;;21.80;16.40;;;;;;;13.75;55.61;98396.25;107405;1254;74226;-38
2023/03/25 07:17:24;;;;;;;21.20;15.50;;;;;;;13.73;55.60;98395.90;107399;1258;69321;-39
2023/03/25 07:19:56;;;;;;;21.40;16.50;;;;;;;13.70;55.70;98389.00;107360;1259;73849;-39
2023/03/25 07:22:26;;;;;;;21.60;16.90;;;;;;;13.67;55.82;98392.36;107410;1257;61280;-38
2023/03/25 07:24:57;;;;;;;24.50;16.90;;;;;;;13.66;55.93;98387.64;107395;1254;61579;-39
2023/03/25 07:27:27;;;;;;;24.40;16.50;;;;;;;13.66;55.94;98386.55;107364;1255;74067;-39
2023/03/25 07:30:03;;;;;;;22.60;16.00;;;;;;;13.67;55.70;98381.09;107298;1258;70260;-39
2023/03/25 07:32:35;;;;;;;22.40;15.60;;;;;;;13.68;55.52;98376.88;107283;1254;73546;-39
2023/03/25 07:35:05;;;;;;;24.00;16.30;;;;;;;13.71;55.45;98371.79;107270;1254;61605;-39
2023/03/25 07:37:34;;;;;;;20.70;16.20;;;;;;;13.77;55.31;98361.31;107384;1254;61325;-39
2023/03/25 07:40:03;;;;;;;24.50;16.30;;;;;;;13.83;55.28;98357.34;107400;1256;74010;-39
2023/03/25 07:42:32;;;;;;;23.40;16.50;;;;;;;13.89;55.08;98360.39;107433;1255;69997;-39
2023/03/25 07:45:36;;;;;;;25.50;16.30;;;;;;;13.93;54.90;98361.84;107254;1262;73513;-39
2023/03/25 07:48:15;;;;;;;24.70;16.00;;;;;;;13.96;54.94;98360.34;107345;1255;61534;-39
2023/03/25 07:50:44;;;;;;;23.80;16.70;;;;;;;13.99;54.92;98362.63;107445;1254;59996;-39
2023/03/25 07:53:15;;;;;;;22.40;16.10;;;;;;;14.01;54.89;98353.89;107441;1254;72939;-39
2023/03/25 07:55:49;;;;;;;23.60;15.30;;;;;;;14.04;54.65;98356.42;107397;1254;70025;-39
2023/03/25 07:58:18;;;;;;;21.60;16.30;;;;;;;14.05;54.13;98356.33;107416;1254;73899;-39
2023/03/25 08:00:48;;;;;;;23.30;16.90;;;;;;;14.05;54.25;98353.39;107437;1254;61399;-39
2023/03/25 08:03:16;;;;;;;20.50;16.00;;;;;;;14.05;54.28;98342.08;107442;1254;60819;-39
2023/03/25 08:05:48;;;;;;;23.90;16.50;;;;;;;14.06;54.12;98336.01;107407;1258;75124;-39
2023/03/25 08:08:18;;;;;;;22.40;16.20;;;;;;;14.08;54.18;98334.57;107356;1258;69921;-39
2023/03/25 08:10:47;;;;;;;24.70;16.60;;;;;;;14.09;53.74;98332.54;107370;1256;73899;-39
2023/03/25 08:13:18;;;;;;;22.90;17.50;;;;;;;14.10;53.49;98332.98;107440;1259;60207;-39
2023/03/25 08:15:49;;;;;;;20.50;16.00;;;;;;;14.10;53.82;98324.98;107424;1257;61192;-39
2023/03/25 08:18:18;;;;;;;24.70;16.10;;;;;;;14.10;53.95;98325.81;107320;1258;74708;-39
2023/03/25 08:20:49;;;;;;;21.00;16.00;;;;;;;14.12;53.97;98321.52;107401;1259;69630;-39
2023/03/25 08:23:18;;;;;;;21.00;16.70;;;;;;;14.14;53.89;98323.52;107417;1259;73831;-40
2023/03/25 08:25:48;;;;;;;24.00;17.30;;;;;;;14.15;53.89;98317.13;107487;1254;60565;-39
2023/03/25 08:28:22;;;;;;;23.30;16.20;;;;;;;14.18;53.77;98310.70;107434;1254;61193;-39
2023/03/25 08:30:54;;;;;;;23.50;16.30;;;;;;;14.20;53.42;98309.83;107410;1254;75120;-40
2023/03/25 08:33:38;;;;;;;20.10;15.60;;;;;;;14.21;53.52;98311.61;107339;1259;70133;-40
2023/03/25 08:36:09;;;;;;;20.90;15.10;;;;;;;14.20;53.68;98322.83;107287;1259;73896;-39
2023/03/25 08:38:37;;;;;;;20.90;15.70;;;;;;;14.21;53.99;98332.33;107349;1254;61545;-39
2023/03/25 08:41:06;;;;;;;24.10;16.80;;;;;;;14.22;54.23;98338.60;107279;1254;61523;-39
2023/03/25 08:43:35;;;;;;;21.60;15.90;;;;;;;14.24;54.08;98336.80;107433;1254;74113;-39
2023/03/25 08:46:06;;;;;;;17.60;14.40;;;;;;;14.27;54.00;98329.75;107328;1254;69764;-39
2023/03/25 08:48:36;;;;;;;19.90;16.00;;;;;;;14.30;53.83;98326.37;107414;1254;73954;-40
2023/03/25 08:51:06;;;;;;;20.80;15.70;;;;;;;14.35;53.64;98327.33;107403;1254;61463;-40
2023/03/25 08:53:36;;;;;;;24.10;16.30;;;;;;;14.40;53.54;98328.69;107382;1254;61241;-39
2023/03/25 08:56:06;;;;;;;22.30;16.10;;;;;;;14.45;53.48;98330.41;107416;1254;75048;-39
2023/03/25 08:58:37;;;;;;;23.10;16.00;;;;;;;14.51;53.52;98323.61;107362;1254;69602;-39
2023/03/25 09:01:06;;;;;;;24.40;17.20;;;;;;;14.57;53.19;98315.44;107324;1254;73119;-39
2023/03/25 09:03:37;;;;;;;22.80;17.10;;;;;;;14.64;53.39;98306.45;107332;1254;61591;-39
2023/03/25 09:06:07;;;;;;;23.20;16.30;;;;;;;14.69;52.39;98304.05;107435;1258;61376;-39
2023/03/25 09:08:36;;;;;;;24.30;16.50;;;;;;;14.72;51.40;98299.64;107427;1254;74833;-39
2023/03/25 09:11:06;;;;;;;21.60;15.50;;;;;;;14.73;51.57;98293.61;107381;1254;69749;-39
2023/03/25 09:13:38;;;;;;;20.80;15.70;;;;;;;14.73;51.83;98289.65;107415;1258;73808;-39
2023/03/25 09:16:08;;;;;;;23.00;15.60;;;;;;;14.72;52.02;98291.14;107391;1254;61730;-39
2023/03/25 09:18:43;;;;;;;21.40;15.90;;;;;;;14.74;52.14;98292.91;107427;1254;61219;-39
2023/03/25 09:21:12;;;;;;;21.60;15.60;;;;;;;14.76;52.39;98294.34;107436;1253;74333;-39
2023/03/25 09:23:42;;;;;;;21.80;16.00;;;;;;;14.79;52.58;98297.27;107481;1254;69781;-39
2023/03/25 09:26:10;;;;;;;20.40;15.80;;;;;;;14.81;52.60;98296.06;107399;1254;73919;-39
2023/03/25 09:28:39;;;;;;;19.70;15.30;;;;;;;14.83;52.66;98295.65;107453;1258;60467;-39
2023/03/25 09:31:09;;;;;;;22.80;16.00;;;;;;;14.86;52.91;98300.83;107448;1254;60343;-38
2023/03/25 09:33:37;;;;;;;20.30;15.60;;;;;;;14.81;52.83;98290.70;107441;1258;75092;-40
2023/03/25 09:36:07;;;;;;;21.70;15.60;;;;;;;14.87;52.69;98296.23;107449;1254;69907;-38
2023/03/25 09:38:38;;;;;;;22.80;15.60;;;;;;;14.88;52.86;98299.80;107286;1258;73431;-39
2023/03/25 09:41:46;;;;;;;20.60;15.90;;;;;;;14.84;53.20;98283.79;107383;1254;61273;-39
2023/03/25 09:44:25;;;;;;;23.20;17.00;;;;;;;14.91;52.75;98278.90;107302;1254;61623;-39
2023/03/25 09:46:54;;;;;;;22.40;16.20;;;;;;;14.99;52.63;98282.52;107246;1254;74741;-40
2023/03/25 09:49:24;;;;;;;24.40;16.70;;;;;;;15.04;52.47;98285.17;107338;1260;70029;-39
2023/03/25 09:51:58;;;;;;;22.90;16.90;;;;;;;15.10;52.66;98281.33;107328;1255;73851;-39
2023/03/25 09:54:34;;;;;;;20.20;16.50;;;;;;;15.17;52.59;98282.39;107339;1255;61619;-39
2023/03/25 09:57:06;;;;;;;24.00;17.20;;;;;;;15.23;52.34;98276.90;107431;1254;60433;-40
2023/03/25 09:59:47;;;;;;;24.20;16.70;;;;;;;15.29;52.01;98273.38;107420;1254;74712;-40
2023/03/25 10:02:36;;;;;;;23.20;16.60;;;;;;;15.36;52.02;98270.21;107446;1258;68636;-39
2023/03/25 10:05:41;;;;;;;19.60;15.60;;;;;;;15.43;51.78;98264.17;107275;1254;73952;-40
2023/03/25 10:08:43;;;;;;;20.50;15.70;;;;;;;15.50;51.66;98267.95;107362;1254;61922;-40
2023/03/25 10:11:31;;;;;;;27.20;18.00;;;;;;;15.58;51.54;98273.66;107392;1254;61194;-40
2023/03/25 10:14:21;;;;;;;24.80;17.10;;;;;;;15.63;51.00;98266.21;107296;1254;75178;-40
2023/03/25 10:16:56;;;;;;;25.50;18.80;;;;;;;15.66;51.08;98264.22;107324;1254;70107;-40
2023/03/25 10:19:41;;;;;;;23.70;18.70;;;;;;;15.69;50.97;98259.87;107379;1254;73972;-40
2023/03/25 10:22:35;;;;;;;27.60;18.80;;;;;;;15.66;50.92;98253.98;107422;1258;61587;-40
2023/03/25 10:25:08;;;;;;;22.80;17.20;;;;;;;15.73;51.15;98263.39;107410;1254;61558;-40
2023/03/25 10:27:40;;;;;;;21.30;16.20;;;;;;;15.74;51.10;98262.81;107401;1254;75040;-40
2023/03/25 10:30:17;;;;;;;22.90;17.00;;;;;;;15.76;51.31;98263.41;107437;1254;69906;-40
2023/03/25 10:32:58;;;;;;;22.10;17.90;;;;;;;15.79;51.29;98262.24;107433;1254;74302;-40
2023/03/25 10:35:31;;;;;;;26.40;18.20;;;;;;;15.81;51.20;98260.33;107427;1254;61596;-40
2023/03/25 10:38:09;;;;;;;23.90;17.50;;;;;;;15.82;51.57;98257.81;107290;1254;60501;-39
2023/03/25 10:40:48;;;;;;;21.30;17.20;;;;;;;15.85;51.12;98255.34;107241;1254;75039;-39
2023/03/25 10:43:30;;;;;;;22.90;16.70;;;;;;;15.86;50.67;98258.75;107206;1256;69939;-39
2023/03/25 10:46:11;;;;;;;22.20;17.40;;;;;;;15.87;50.91;98254.83;107185;1255;72998;-39
2023/03/25 10:48:40;;;;;;;23.90;17.00;;;;;;;15.89;50.90;98251.05;107164;1256;60421;-39
2023/03/25 10:51:11;;;;;;;23.60;16.40;;;;;;;15.90;50.89;98247.34;107136;1256;61641;-39
2023/03/25 10:53:48;;;;;;;20.70;16.30;;;;;;;15.95;50.42;98245.28;107255;1255;74881;-39
2023/03/25 10:56:41;;;;;;;20.60;16.70;;;;;;;16.02;50.50;98243.90;107205;1257;68619;-40
2023/03/25 10:59:44;;;;;;;22.10;16.60;;;;;;;16.13;50.34;98247.50;107290;1259;73881;-40
2023/03/25 11:02:21;;;;;;;25.40;17.70;;;;;;;16.21;49.72;98243.34;107175;1257;61977;-39
2023/03/25 11:04:57;;;;;;;23.20;16.30;;;;;;;16.24;49.56;98235.93;107293;1256;61262;-39
2023/03/25 11:07:29;;;;;;;20.00;15.80;;;;;;;16.27;49.49;98228.67;107322;1256;73657;-39
2023/03/25 11:10:13;;;;;;;21.80;16.60;;;;;;;16.29;49.26;98228.77;107325;1256;69685;-40
2023/03/25 11:12:47;;;;;;;21.00;15.80;;;;;;;16.31;49.11;98225.48;107295;1260;73561;-40
2023/03/25 11:15:28;;;;;;;20.20;15.70;;;;;;;16.30;49.12;98220.95;107293;1256;61384;-40
2023/03/25 11:18:24;;;;;;;23.20;16.60;;;;;;;16.28;49.16;98212.40;107322;1256;60329;-39
2023/03/25 11:21:13;;;;;;;23.30;17.00;;;;;;;16.27;49.23;98208.76;107285;1258;75142;-39
2023/03/25 11:23:49;;;;;;;21.30;16.40;;;;;;;16.23;49.18;98209.52;107260;1257;68717;-40
2023/03/25 11:26:23;;;;;;;22.10;17.20;;;;;;;16.21;49.48;98212.70;107257;1258;72589;-39
2023/03/25 11:28:55;;;;;;;19.80;16.80;;;;;;;16.20;49.64;98213.91;107220;1257;61577;-39
2023/03/25 11:31:26;;;;;;;20.40;16.60;;;;;;;16.18;49.52;98217.62;107281;1255;60329;-39
2023/03/25 11:34:05;;;;;;;;;;;;;;;16.15;49.87;98218.70;107362;1255;74929;-39
2023/03/25 11:36:55;;;;;;;23.90;15.60;;;;;;;16.04;50.48;98214.00;107266;1256;69523;-39
2023/03/25 11:39:35;;;;;;;;;;;;;;;16.00;50.99;98219.08;107156;1256;74080;-38
2023/03/25 11:42:15;;;;;;;23.90;16.10;;;;;;;15.97;51.00;98216.28;107076;1256;61263;-39
2023/03/25 11:44:51;;;;;;;27.00;17.50;;;;;;;15.97;50.91;98214.15;107153;1256;61530;-39